Time;durP1;ratioP1;P1;durP2;ratioP2;P2;SDS_P1;SDS_P2;PMS_P1;PMS_P2;Temp;Humidity;BMP_temperature;BMP_pressure;BME280_temperature;BME280_humidity;BME280_pressure;Samples;Min_cycle;Max_cycle;Signal;HPM_P1;HPM_P2
2021/12/24 00:00:20;;;;;;;3.58;3.28;;;;;;;9.22;76.78;98041.41;5040641;27;104163;-68
2021/12/24 00:02:49;;;;;;;4.00;3.57;;;;;;;8.98;77.38;98038.03;5059794;27;103872;-68
2021/12/24 00:05:17;;;;;;;3.60;3.30;;;;;;;9.10;77.26;98037.91;5061037;27;102983;-68
2021/12/24 00:07:45;;;;;;;4.07;3.60;;;;;;;9.00;76.53;98030.84;5060551;27;102875;-68
2021/12/24 00:10:14;;;;;;;4.50;3.80;;;;;;;9.09;77.55;98025.72;5059706;27;103192;-68
2021/12/24 00:12:47;;;;;;;4.38;3.97;;;;;;;9.11;76.84;98022.97;5060113;27;103196;-68
2021/12/24 00:15:39;;;;;;;5.85;3.88;;;;;;;8.81;77.95;98015.59;5042487;27;102723;-68
2021/12/24 00:18:14;;;;;;;4.45;4.05;;;;;;;8.40;80.54;98018.69;5059864;27;104292;-68
2021/12/24 00:37:16;;;;;;;9.07;8.18;;;;;;;8.93;77.95;98019.06;5060462;27;102713;-68
2021/12/24 00:39:51;;;;;;;8.03;7.23;;;;;;;9.09;77.08;98015.19;5040551;27;104719;-68
2021/12/24 00:42:19;;;;;;;8.57;7.60;;;;;;;8.95;77.49;98007.50;5058429;27;103330;-68
2021/12/24 00:44:48;;;;;;;6.33;5.77;;;;;;;9.02;77.57;98007.84;5059684;27;103174;-68
2021/12/24 00:47:16;;;;;;;5.18;4.68;;;;;;;9.13;76.62;98000.78;5061199;27;102709;-68
2021/12/24 00:49:44;;;;;;;4.55;4.15;;;;;;;9.04;76.35;97992.78;5059091;27;102682;-68
2021/12/24 00:52:31;;;;;;;5.03;3.78;;;;;;;8.90;76.84;97990.38;5059133;27;102749;-68
2021/12/24 00:55:06;;;;;;;4.57;4.17;;;;;;;8.77;77.98;98000.13;5041482;27;103218;-69
2021/12/24 00:57:34;;;;;;;6.40;5.72;;;;;;;8.29;80.19;97992.34;5058718;27;103746;-68
2021/12/24 01:00:07;;;;;;;6.80;6.00;;;;;;;8.60;78.92;97986.47;5040538;27;103824;-68
2021/12/24 01:02:35;;;;;;;6.60;6.00;;;;;;;8.33;80.11;97985.91;5058186;27;103184;-67
2021/12/24 01:05:06;;;;;;;8.00;6.75;;;;;;;8.11;81.82;97988.41;5053560;27;105966;-68
2021/12/24 01:07:36;;;;;;;6.30;5.70;;;;;;;8.28;81.02;97993.28;5041195;27;102953;-68
2021/12/24 01:10:06;;;;;;;6.13;5.53;;;;;;;8.40;80.16;97997.63;5040191;27;103133;-68
2021/12/24 01:12:34;;;;;;;5.75;5.15;;;;;;;8.51;79.92;98002.94;5058470;27;103246;-68
2021/12/24 01:15:06;;;;;;;6.93;5.70;;;;;;;8.55;78.87;97999.13;5040668;27;103272;-68
2021/12/24 01:17:40;;;;;;;5.53;5.03;;;;;;;8.55;79.20;98004.41;5041899;27;102607;-68
2021/12/24 01:20:21;;;;;;;7.57;6.35;;;;;;;8.27;80.31;98009.16;5041276;27;103549;-68
2021/12/24 01:25:40;;;;;;;5.82;5.32;;;;;;;7.84;82.55;97987.75;5059689;27;103315;-68
2021/12/24 01:39:40;;;;;;;6.38;5.32;;;;;;;7.98;81.88;97984.97;5050419;27;103172;-68
2021/12/24 01:44:56;;;;;;;6.30;5.45;;;;;;;8.29;80.81;97988.84;5054178;27;103845;-68
2021/12/24 01:47:26;;;;;;;5.88;5.28;;;;;;;8.41;79.73;97993.22;5040113;27;104063;-67
2021/12/24 01:49:54;;;;;;;5.60;4.50;;;;;;;8.49;78.83;97982.94;5039473;27;102704;-68
2021/12/24 01:52:23;;;;;;;5.78;5.28;;;;;;;8.16;80.40;97991.53;5039158;27;102859;-68
2021/12/24 01:54:56;;;;;;;4.18;3.78;;;;;;;8.38;80.42;97981.13;5041056;27;104952;-68
2021/12/24 01:57:24;;;;;;;4.15;3.58;;;;;;;8.49;80.03;97972.41;5040160;27;104357;-67
2021/12/24 01:59:54;;;;;;;4.30;3.90;;;;;;;8.38;80.35;97975.88;5041233;27;103166;-68
2021/12/24 02:02:22;;;;;;;3.80;3.40;;;;;;;8.39;80.29;97977.56;5034716;27;102706;-68
2021/12/24 02:04:52;;;;;;;4.03;3.55;;;;;;;8.38;80.46;97969.75;5058547;27;104011;-67
2021/12/24 02:07:23;;;;;;;3.30;3.03;;;;;;;8.61;79.91;97964.44;5040948;27;103886;-68
2021/12/24 02:09:54;;;;;;;3.50;3.17;;;;;;;8.73;79.02;97963.50;5059605;27;102649;-67
2021/12/24 02:12:24;;;;;;;3.33;3.03;;;;;;;8.81;79.28;97962.09;5059702;27;104010;-68
2021/12/24 02:14:56;;;;;;;3.77;3.07;;;;;;;8.86;78.94;97954.66;5039379;27;103546;-66
2021/12/24 02:28:38;;;;;;;2.80;2.40;;;;;;;9.14;77.92;97936.59;5038349;27;103179;-65
2021/12/24 02:31:10;;;;;;;3.77;2.70;;;;;;;9.27;77.20;97933.81;5037853;27;103689;-65
2021/12/24 02:33:39;;;;;;;3.80;2.88;;;;;;;9.12;77.57;97930.59;5038472;27;103024;-65
2021/12/24 02:36:10;;;;;;;3.10;2.78;;;;;;;9.23;77.21;97933.22;5035823;27;104227;-65
2021/12/24 02:38:39;;;;;;;3.03;2.73;;;;;;;9.27;77.38;97936.47;5037918;27;104964;-65
2021/12/24 02:41:09;;;;;;;3.00;2.70;;;;;;;9.09;78.25;97935.28;5039452;27;102582;-65
2021/12/24 02:43:38;;;;;;;2.88;2.58;;;;;;;9.27;76.96;97928.56;5057817;27;102709;-65
2021/12/24 02:46:13;;;;;;;2.95;2.70;;;;;;;9.25;77.69;97919.94;5057391;27;104084;-65
2021/12/24 02:54:23;;;;;;;2.77;2.50;;;;;;;9.53;75.58;97898.31;5057161;27;102894;-65
2021/12/24 02:56:53;;;;;;;2.88;2.33;;;;;;;9.55;76.11;97896.41;5039425;27;103012;-65
2021/12/24 02:59:27;;;;;;;3.30;2.60;;;;;;;9.42;76.44;97890.44;5039722;27;104205;-65
2021/12/24 03:01:57;;;;;;;3.10;2.50;;;;;;;9.28;77.30;97894.19;5034504;27;102939;-65
2021/12/24 03:04:26;;;;;;;2.70;2.50;;;;;;;9.60;76.01;97885.50;5039423;27;102688;-65
2021/12/24 03:06:58;;;;;;;2.43;2.23;;;;;;;9.66;75.85;97891.09;5035392;27;103234;-65
2021/12/24 03:09:26;;;;;;;3.92;2.83;;;;;;;9.55;76.31;97891.13;5055914;27;104112;-65
2021/12/24 03:11:55;;;;;;;2.83;2.47;;;;;;;9.55;76.44;97891.13;5060409;27;103344;-65
2021/12/24 03:14:23;;;;;;;2.87;2.57;;;;;;;9.60;75.96;97893.41;5042684;27;102747;-65
2021/12/24 03:16:57;;;;;;;3.08;2.78;;;;;;;9.61;76.10;97889.78;5042359;27;104413;-65
2021/12/24 03:19:30;;;;;;;4.55;2.90;;;;;;;9.39;77.00;97892.47;5043001;27;103165;-65
2021/12/24 03:22:24;;;;;;;3.50;3.00;;;;;;;9.41;76.77;97888.75;5042536;27;103416;-65
2021/12/24 03:24:51;;;;;;;3.35;2.70;;;;;;;9.51;76.54;97876.53;5041578;27;104075;-65
2021/12/24 03:27:19;;;;;;;2.90;2.63;;;;;;;9.83;75.45;97884.44;5040228;27;103683;-65
2021/12/24 03:29:47;;;;;;;3.85;2.70;;;;;;;9.75;75.50;97889.50;5042679;27;104182;-65
2021/12/24 03:32:16;;;;;;;3.03;2.30;;;;;;;9.70;75.81;97876.72;5041500;27;102692;-64
2021/12/24 03:34:44;;;;;;;2.85;2.60;;;;;;;9.80;75.43;97877.63;5060203;27;103921;-65
2021/12/24 03:37:14;;;;;;;2.75;2.55;;;;;;;9.67;75.76;97874.31;5058861;27;103552;-65
2021/12/24 03:39:44;;;;;;;3.05;2.58;;;;;;;9.61;75.83;97874.81;5041106;27;105542;-65
2021/12/24 03:42:13;;;;;;;2.50;2.30;;;;;;;9.96;74.72;97857.91;5059715;27;102698;-65
2021/12/24 03:44:44;;;;;;;2.63;2.42;;;;;;;10.02;74.39;97852.94;5042822;27;103637;-65
2021/12/24 03:47:16;;;;;;;2.83;2.33;;;;;;;9.96;74.44;97849.97;5041944;27;104266;-65
2021/12/24 03:50:01;;;;;;;2.30;1.90;;;;;;;10.08;74.05;97856.84;5042151;27;105851;-65
2021/12/24 03:52:50;;;;;;;3.13;2.50;;;;;;;10.06;73.76;97856.16;5043309;27;102877;-65
2021/12/24 03:55:18;;;;;;;1.90;1.80;;;;;;;10.11;73.76;97851.31;5042002;27;102736;-65
2021/12/24 03:57:46;;;;;;;2.10;1.90;;;;;;;10.14;73.46;97856.38;5040520;27;105701;-65
2021/12/24 04:00:33;;;;;;;2.63;2.10;;;;;;;10.08;73.72;97843.66;5060141;27;103152;-65
2021/12/24 04:03:22;;;;;;;3.00;2.45;;;;;;;9.76;74.89;97844.56;5038058;27;102814;-65
2021/12/24 04:06:09;;;;;;;2.28;2.08;;;;;;;9.91;74.24;97845.06;5060598;27;103161;-65
2021/12/24 04:09:01;;;;;;;3.55;2.78;;;;;;;9.17;77.07;97851.19;5059946;27;104148;-65
2021/12/24 04:11:42;;;;;;;4.40;3.42;;;;;;;8.82;78.93;97848.69;5040704;27;105601;-66
2021/12/24 04:14:10;;;;;;;3.88;3.47;;;;;;;8.61;79.74;97851.25;5041981;27;102780;-65
2021/12/24 04:16:39;;;;;;;5.28;3.08;;;;;;;8.57;80.25;97856.84;5042775;27;104014;-65
2021/12/24 04:19:36;;;;;;;3.25;2.95;;;;;;;8.89;79.44;97849.91;5042006;27;104451;-65
2021/12/24 04:24:56;;;;;;;4.13;3.25;;;;;;;8.51;79.91;97847.63;5040744;27;102711;-65
2021/12/24 04:27:28;;;;;;;3.17;2.80;;;;;;;8.76;79.70;97843.91;5042241;27;102706;-65
2021/12/24 04:30:06;;;;;;;3.53;3.20;;;;;;;8.64;79.35;97840.47;5060402;27;104059;-65
2021/12/24 04:32:51;;;;;;;3.75;3.08;;;;;;;9.03;77.87;97835.66;5040911;27;102790;-65
2021/12/24 04:35:38;;;;;;;4.20;3.80;;;;;;;8.96;77.95;97839.72;5041868;27;102766;-65
2021/12/24 04:52:18;;;;;;;3.20;2.88;;;;;;;8.94;79.08;97815.28;5040915;27;104162;-65
2021/12/24 05:03:28;;;;;;;3.03;2.80;;;;;;;9.17;78.01;97822.22;5033991;27;105070;-65
2021/12/24 05:06:08;;;;;;;2.55;2.35;;;;;;;9.33;76.64;97827.91;5041664;27;106123;-65
2021/12/24 05:08:43;;;;;;;3.42;2.92;;;;;;;9.30;76.83;97823.72;5041736;27;102742;-65
2021/12/24 05:11:13;;;;;;;3.60;3.17;;;;;;;8.48;79.98;97832.06;5037548;27;104278;-65
2021/12/24 05:13:43;;;;;;;3.45;2.92;;;;;;;8.55;80.99;97827.16;5039067;27;104419;-65
2021/12/24 05:16:28;;;;;;;3.45;3.15;;;;;;;8.55;81.06;97835.91;5043242;27;105438;-65
2021/12/24 05:22:14;;;;;;;3.47;2.90;;;;;;;8.88;79.27;97834.22;5059714;27;104116;-66
2021/12/24 05:24:42;;;;;;;3.47;3.10;;;;;;;8.38;81.37;97835.53;5039451;27;103764;-66
2021/12/24 05:27:10;;;;;;;3.15;2.65;;;;;;;8.77;80.73;97835.06;5041218;27;104188;-66
2021/12/24 05:29:39;;;;;;;2.95;2.75;;;;;;;8.89;80.06;97834.09;5042697;27;102707;-66
2021/12/24 05:32:08;;;;;;;4.40;3.28;;;;;;;8.61;79.58;97830.16;5040776;27;103918;-67
2021/12/24 05:34:36;;;;;;;3.50;3.20;;;;;;;8.29;82.50;97839.69;5036745;27;104393;-66
2021/12/24 05:37:05;;;;;;;4.18;3.22;;;;;;;8.02;83.61;97833.88;5060659;27;103232;-66
2021/12/24 05:39:34;;;;;;;3.30;3.00;;;;;;;8.32;82.27;97838.63;5043748;27;102800;-66
2021/12/24 05:42:03;;;;;;;2.80;2.60;;;;;;;8.66;81.29;97828.00;5040976;27;104097;-67
2021/12/24 05:44:32;;;;;;;2.33;2.13;;;;;;;9.10;79.30;97823.66;5040752;27;104117;-67
2021/12/24 05:47:20;;;;;;;3.50;3.17;;;;;;;8.65;80.35;97818.44;5041878;27;103380;-67
2021/12/24 05:49:50;;;;;;;4.05;3.28;;;;;;;8.44;81.50;97827.16;5058449;27;103267;-68
2021/12/24 05:52:37;;;;;;;2.90;2.70;;;;;;;8.91;79.79;97821.66;5060925;27;102603;-66
2021/12/24 05:55:12;;;;;;;3.45;3.15;;;;;;;8.82;79.82;97816.25;5041736;27;103514;-67
2021/12/24 05:57:40;;;;;;;3.08;2.80;;;;;;;9.03;79.10;97814.56;5053492;27;103398;-67
2021/12/24 06:00:10;;;;;;;2.80;2.57;;;;;;;9.27;78.28;97823.97;5049858;27;102643;-67
2021/12/24 06:02:46;;;;;;;11.50;7.05;;;;;;;9.28;78.09;97825.66;5037836;27;103694;-66
2021/12/24 06:05:17;;;;;;;4.97;4.00;;;;;;;9.13;78.69;97828.66;5040430;27;104360;-67
2021/12/24 06:07:45;;;;;;;4.80;3.00;;;;;;;8.83;80.43;97826.69;5059576;27;103256;-67
2021/12/24 06:10:13;;;;;;;3.37;3.07;;;;;;;8.87;80.43;97829.94;5059564;27;102962;-66
2021/12/24 06:12:41;;;;;;;2.83;2.63;;;;;;;9.07;80.26;97834.44;5038787;27;104570;-66
2021/12/24 06:15:10;;;;;;;2.50;2.30;;;;;;;9.42;78.42;97843.00;5060006;27;103616;-66
2021/12/24 06:17:39;;;;;;;3.03;2.70;;;;;;;9.57;77.42;97844.38;5059103;27;103324;-67
2021/12/24 06:20:12;;;;;;;3.30;2.67;;;;;;;9.51;77.90;97830.88;5034802;27;103429;-67
2021/12/24 06:22:40;;;;;;;2.80;2.60;;;;;;;9.44;78.13;97835.78;5054193;27;104724;-67
2021/12/24 06:25:09;;;;;;;2.43;2.23;;;;;;;9.55;77.82;97838.38;5054715;27;103883;-67
2021/12/24 06:27:37;;;;;;;2.93;2.73;;;;;;;9.25;79.11;97825.06;5050894;27;103416;-67
2021/12/24 06:30:07;;;;;;;3.25;2.58;;;;;;;9.39;78.80;97830.06;5054120;27;102653;-66
2021/12/24 06:32:35;;;;;;;3.50;3.10;;;;;;;9.26;79.54;97819.66;5035331;27;104130;-66
2021/12/24 06:35:04;;;;;;;2.83;2.60;;;;;;;9.51;79.35;97818.53;5041766;27;103192;-66
2021/12/24 06:37:36;;;;;;;3.10;2.80;;;;;;;9.63;79.51;97827.19;5045425;27;102959;-67
2021/12/24 06:40:08;;;;;;;2.95;2.65;;;;;;;9.69;79.95;97840.72;5039619;27;102884;-66
2021/12/24 06:42:36;;;;;;;3.53;3.22;;;;;;;9.59;80.68;97845.09;5046960;27;103639;-66
2021/12/24 06:45:05;;;;;;;3.08;2.88;;;;;;;9.72;80.48;97832.56;5050630;27;103998;-66
2021/12/24 06:47:33;;;;;;;3.05;2.75;;;;;;;9.90;79.49;97844.25;5048609;27;103313;-66
2021/12/24 06:50:01;;;;;;;3.50;3.20;;;;;;;9.83;80.20;97848.34;5050660;27;103173;-67
2021/12/24 06:52:29;;;;;;;2.97;2.63;;;;;;;10.06;79.47;97843.81;5049412;27;102901;-67
2021/12/24 06:55:01;;;;;;;4.05;3.03;;;;;;;10.13;79.12;97839.75;5041489;27;104474;-67
2021/12/24 06:57:31;;;;;;;5.40;3.50;;;;;;;10.02;79.37;97845.00;5039248;27;104089;-66
2021/12/24 07:00:00;;;;;;;3.33;2.80;;;;;;;10.28;78.86;97842.88;5033717;27;102687;-67
2021/12/24 07:02:28;;;;;;;4.22;3.40;;;;;;;10.11;79.36;97838.13;5051459;27;103619;-67
2021/12/24 07:04:56;;;;;;;3.30;3.00;;;;;;;10.20;79.54;97845.31;5046497;27;104392;-67
2021/12/24 07:07:27;;;;;;;3.65;3.20;;;;;;;10.19;79.91;97839.19;5046265;27;103420;-67
2021/12/24 07:09:55;;;;;;;4.00;3.10;;;;;;;10.43;79.40;97839.78;5054073;27;102689;-68
2021/12/24 07:12:25;;;;;;;4.22;3.53;;;;;;;10.29;80.11;97826.91;5057719;27;103940;-66
2021/12/24 07:14:53;;;;;;;4.90;3.72;;;;;;;10.15;81.52;97842.22;5039329;27;104178;-66
2021/12/24 07:17:21;;;;;;;4.20;3.80;;;;;;;10.29;80.92;97844.53;5058791;27;103190;-67
2021/12/24 07:19:49;;;;;;;4.97;3.70;;;;;;;10.38;80.78;97851.69;5055057;27;102668;-67
2021/12/24 07:22:18;;;;;;;4.23;3.73;;;;;;;10.21;81.15;97847.00;5060498;27;103799;-68
2021/12/24 07:24:46;;;;;;;4.47;3.70;;;;;;;10.21;81.65;97853.13;5061262;27;104289;-67
2021/12/24 07:27:15;;;;;;;4.13;3.50;;;;;;;10.30;81.54;97854.97;5055343;27;103229;-67
2021/12/24 07:29:44;;;;;;;4.80;3.58;;;;;;;10.44;81.45;97848.53;5061395;27;102679;-67
2021/12/24 07:32:12;;;;;;;6.15;3.63;;;;;;;10.48;80.82;97855.22;5042929;27;102978;-67
2021/12/24 07:34:40;;;;;;;4.43;3.78;;;;;;;10.46;80.81;97847.44;5058287;27;104270;-67
2021/12/24 07:37:09;;;;;;;4.28;3.75;;;;;;;10.35;81.08;97844.03;5050572;27;103191;-67
2021/12/24 07:39:37;;;;;;;3.95;3.55;;;;;;;10.31;81.34;97847.88;5051891;27;102618;-66
2021/12/24 07:42:06;;;;;;;3.50;3.20;;;;;;;10.44;80.86;97844.06;5053270;27;102802;-67
2021/12/24 07:44:35;;;;;;;3.80;3.50;;;;;;;10.48;80.59;97839.38;5036232;27;103223;-67
2021/12/24 07:47:14;;;;;;;4.18;3.30;;;;;;;10.63;79.87;97824.88;5052633;27;103158;-67
2021/12/24 07:49:44;;;;;;;4.18;3.65;;;;;;;10.49;80.46;97825.22;5055027;27;102601;-67
2021/12/24 07:52:14;;;;;;;3.97;2.97;;;;;;;10.73;79.31;97838.09;5055002;27;102694;-67
2021/12/24 07:54:46;;;;;;;3.80;3.28;;;;;;;10.77;79.01;97855.38;5033264;27;104230;-67
2021/12/24 07:57:34;;;;;;;5.10;3.63;;;;;;;10.61;80.32;97853.19;5054549;27;103202;-67
2021/12/24 08:00:05;;;;;;;5.20;3.85;;;;;;;10.44;80.19;97848.53;5055097;27;103698;-67
2021/12/24 08:02:42;;;;;;;4.65;3.58;;;;;;;10.49;79.45;97846.34;5055325;27;104167;-67
2021/12/24 08:05:14;;;;;;;4.25;3.83;;;;;;;10.47;79.44;97853.53;5035521;27;104265;-67
2021/12/24 08:07:42;;;;;;;3.83;3.43;;;;;;;10.60;78.76;97843.63;5056170;27;103161;-67
2021/12/24 08:10:10;;;;;;;4.43;3.35;;;;;;;10.84;78.13;97844.13;4979033;27;102967;-67
2021/12/24 08:13:11;;;;;;;3.60;3.22;;;;;;;10.80;77.98;97832.19;5092949;27;102588;-66
2021/12/24 08:15:39;;;;;;;3.92;3.53;;;;;;;10.61;79.06;97839.19;5088811;27;104071;-66
2021/12/24 08:18:10;;;;;;;3.83;3.42;;;;;;;10.74;77.80;97823.94;5089404;27;104214;-66
2021/12/24 08:20:38;;;;;;;4.60;3.53;;;;;;;10.50;78.79;97842.72;5083562;27;103420;-67
2021/12/24 08:23:06;;;;;;;4.05;3.30;;;;;;;10.54;79.05;97843.28;5081575;27;102572;-67
2021/12/24 08:25:34;;;;;;;4.60;3.70;;;;;;;10.44;79.11;97843.25;5090587;27;103640;-67
2021/12/24 08:28:02;;;;;;;4.13;3.50;;;;;;;10.52;78.91;97848.72;5094213;27;103943;-67
2021/12/24 08:30:34;;;;;;;3.63;3.33;;;;;;;10.36;79.63;97843.03;5070618;27;104373;-67
2021/12/24 08:33:06;;;;;;;3.42;3.10;;;;;;;10.59;78.50;97841.09;5088513;27;102913;-67
2021/12/24 08:35:34;;;;;;;3.50;3.20;;;;;;;10.58;78.11;97840.28;5067097;27;102835;-67
2021/12/24 08:38:02;;;;;;;3.58;3.03;;;;;;;10.47;78.36;97842.97;5068634;27;104194;-67
2021/12/24 08:40:32;;;;;;;3.42;2.90;;;;;;;10.57;77.75;97846.53;5091558;27;103251;-67
2021/12/24 08:43:02;;;;;;;3.20;2.90;;;;;;;10.71;77.41;97845.34;5093161;27;103897;-67
2021/12/24 08:45:30;;;;;;;4.32;2.97;;;;;;;10.48;78.44;97847.28;5090530;27;103134;-67
2021/12/24 08:48:00;;;;;;;4.18;3.28;;;;;;;10.47;77.98;97845.63;5087831;27;103223;-67
2021/12/24 08:50:28;;;;;;;3.25;2.88;;;;;;;10.56;77.61;97836.06;5067714;27;103257;-67
2021/12/24 08:52:56;;;;;;;3.92;3.45;;;;;;;10.24;79.45;97834.41;5089347;27;102598;-67
2021/12/24 08:55:25;;;;;;;3.65;3.30;;;;;;;10.36;79.05;97827.22;5094372;27;103660;-67
2021/12/24 08:57:54;;;;;;;3.53;3.03;;;;;;;10.31;78.72;97826.78;5092544;27;103738;-67
2021/12/24 09:00:23;;;;;;;3.53;3.20;;;;;;;10.52;78.49;97835.53;5089456;27;103189;-66
2021/12/24 09:02:51;;;;;;;3.45;3.10;;;;;;;10.34;78.79;97831.78;5086170;27;102653;-69
2021/12/24 09:05:21;;;;;;;3.05;2.75;;;;;;;10.69;78.01;97832.28;5071564;27;103484;-69
2021/12/24 09:07:49;;;;;;;4.72;3.10;;;;;;;10.58;78.44;97828.88;5068692;27;104277;-69
2021/12/24 09:10:17;;;;;;;2.80;2.60;;;;;;;10.64;78.55;97829.16;5070413;27;103867;-69
2021/12/24 09:12:46;;;;;;;3.97;3.13;;;;;;;10.22;80.19;97838.09;5083286;27;103883;-69
2021/12/24 09:15:17;;;;;;;3.65;2.88;;;;;;;10.37;79.91;97836.81;5088326;27;102889;-69
2021/12/24 09:17:46;;;;;;;3.47;2.83;;;;;;;10.34;80.00;97839.72;5066139;27;104584;-69
2021/12/24 09:20:18;;;;;;;2.83;2.60;;;;;;;10.41;79.91;97832.97;5082231;27;103466;-69
2021/12/24 09:22:48;;;;;;;3.17;2.80;;;;;;;10.28;80.79;97835.78;5081760;27;102681;-69
2021/12/24 09:25:19;;;;;;;3.28;2.97;;;;;;;10.37;80.87;97834.19;5074807;27;102740;-69
2021/12/24 09:27:47;;;;;;;3.05;2.75;;;;;;;10.56;80.41;97831.63;5074001;27;104139;-69
2021/12/24 09:30:15;;;;;;;4.35;3.05;;;;;;;10.55;80.37;97824.69;5073914;27;103836;-70
2021/12/24 09:32:43;;;;;;;3.33;3.03;;;;;;;10.44;81.67;97824.78;5080087;27;102961;-69
2021/12/24 09:35:12;;;;;;;3.10;2.58;;;;;;;10.45;82.04;97829.06;5075944;27;102678;-67
2021/12/24 09:37:41;;;;;;;3.50;3.10;;;;;;;10.23;83.03;97832.72;5077215;27;104016;-67
2021/12/24 09:40:13;;;;;;;3.40;3.10;;;;;;;10.18;83.71;97839.34;5081113;27;103210;-67
2021/12/24 09:42:42;;;;;;;3.50;3.20;;;;;;;10.35;82.60;97829.03;5070328;27;102584;-67
2021/12/24 09:45:12;;;;;;;3.60;2.80;;;;;;;10.48;82.25;97823.53;5074500;27;102662;-67
2021/12/24 09:47:41;;;;;;;3.40;2.95;;;;;;;10.13;83.42;97825.69;5056979;27;104406;-69
2021/12/24 09:50:13;;;;;;;3.30;3.00;;;;;;;10.05;84.59;97828.13;5055947;27;104244;-67
2021/12/24 09:52:44;;;;;;;2.90;2.70;;;;;;;10.19;84.38;97822.53;5074781;27;102960;-67
2021/12/24 09:55:17;;;;;;;2.80;2.60;;;;;;;10.16;84.38;97834.16;5074746;27;103789;-66
2021/12/24 09:57:46;;;;;;;4.70;3.25;;;;;;;10.24;84.07;97829.13;5055843;27;103334;-67
2021/12/24 10:00:18;;;;;;;3.00;2.80;;;;;;;10.31;84.74;97842.59;5075445;27;103336;-67
2021/12/24 10:02:50;;;;;;;4.18;3.10;;;;;;;10.19;85.69;97828.63;5071915;27;102686;-67
2021/12/24 10:05:35;;;;;;;3.30;3.00;;;;;;;10.05;86.09;97842.13;5077671;27;104179;-67
2021/12/24 10:08:10;;;;;;;4.88;4.10;;;;;;;10.03;86.35;97837.94;5076601;27;103306;-67
2021/12/24 10:10:43;;;;;;;3.58;3.13;;;;;;;10.49;85.37;97838.41;5074467;27;103189;-66
2021/12/24 10:13:32;;;;;;;3.70;3.05;;;;;;;10.44;84.83;97837.97;5068569;27;102713;-67
2021/12/24 10:16:03;;;;;;;3.22;2.92;;;;;;;10.32;85.90;97825.81;5072586;27;103735;-67
2021/12/24 10:18:39;;;;;;;3.22;3.00;;;;;;;10.47;85.89;97821.84;5073375;27;103939;-67
2021/12/24 10:21:13;;;;;;;3.97;3.33;;;;;;;10.43;85.58;97825.75;5071170;27;103840;-67
2021/12/24 10:23:49;;;;;;;3.50;3.17;;;;;;;10.60;85.66;97824.28;5072490;27;102659;-65
2021/12/24 10:26:24;;;;;;;4.72;4.07;;;;;;;10.52;85.57;97817.03;5073466;27;104014;-65
2021/12/24 10:28:57;;;;;;;4.25;3.85;;;;;;;10.54;85.01;97809.81;5074907;27;103752;-65
2021/12/24 10:31:28;;;;;;;4.70;3.37;;;;;;;10.59;84.52;97799.69;5072485;27;102989;-65
2021/12/24 10:34:21;;;;;;;3.53;3.22;;;;;;;10.54;85.41;97795.75;5076535;27;102659;-66
2021/12/24 10:37:09;;;;;;;3.53;3.22;;;;;;;10.20;86.26;97797.81;5070438;27;102643;-66
2021/12/24 10:39:50;;;;;;;3.53;2.92;;;;;;;10.36;86.36;97798.16;5051762;27;103257;-65
2021/12/24 10:42:27;;;;;;;3.20;2.90;;;;;;;10.55;85.07;97798.28;5072716;27;103383;-65
2021/12/24 10:45:00;;;;;;;4.30;2.97;;;;;;;10.43;85.24;97797.53;5051236;27;102888;-65
2021/12/24 10:47:30;;;;;;;3.15;2.85;;;;;;;10.40;85.37;97796.94;5071158;27;103691;-66
2021/12/24 10:55:37;;;;;;;3.10;2.80;;;;;;;10.69;84.29;97778.59;5074056;27;102599;-68
2021/12/24 10:58:14;;;;;;;3.88;2.72;;;;;;;10.45;84.38;97773.63;5077419;27;102649;-68
2021/12/24 11:00:48;;;;;;;3.15;2.72;;;;;;;10.43;85.56;97779.03;5073436;27;103208;-68
2021/12/24 11:03:22;;;;;;;3.63;2.80;;;;;;;10.60;84.42;97769.66;5075039;27;103205;-68
2021/12/24 11:05:52;;;;;;;4.97;3.72;;;;;;;10.34;84.90;97769.28;5053787;27;102690;-68
2021/12/24 11:08:22;;;;;;;4.17;3.77;;;;;;;10.23;86.01;97761.44;5075062;27;104085;-68
2021/12/24 11:10:52;;;;;;;3.75;3.45;;;;;;;10.80;83.48;97766.13;5070461;27;104074;-68
2021/12/24 11:13:28;;;;;;;8.02;7.32;;;;;;;10.33;84.97;97761.50;5074098;27;103197;-69
2021/12/24 11:15:58;;;;;;;15.63;14.00;;;;;;;10.66;83.26;97761.22;5072388;27;102667;-69
2021/12/24 11:18:29;;;;;;;30.10;27.10;;;;;;;10.73;83.17;97764.97;5073705;27;102666;-69
2021/12/24 11:20:59;;;;;;;5.25;4.80;;;;;;;10.59;84.00;97770.63;5055339;27;104270;-69
2021/12/24 11:23:29;;;;;;;3.40;3.10;;;;;;;10.48;83.50;97762.78;5075167;27;103055;-63
2021/12/24 11:25:59;;;;;;;4.32;3.67;;;;;;;10.32;84.68;97765.09;5050349;27;102654;-68
2021/12/24 11:28:29;;;;;;;2.90;2.70;;;;;;;10.65;83.08;97762.16;5072468;27;103541;-68
2021/12/24 11:30:59;;;;;;;2.88;2.65;;;;;;;10.74;83.24;97756.09;5069467;27;103260;-68
2021/12/24 11:33:31;;;;;;;2.60;2.40;;;;;;;10.35;84.18;97764.84;5074668;27;102947;-68
2021/12/24 11:36:02;;;;;;;3.17;2.60;;;;;;;10.47;84.03;97753.19;5056490;27;102759;-68
2021/12/24 11:38:33;;;;;;;2.15;2.00;;;;;;;10.70;83.36;97753.84;5069285;27;103707;-69
2021/12/24 11:41:03;;;;;;;5.47;3.00;;;;;;;10.85;82.34;97750.69;5053814;27;104362;-69
2021/12/24 11:43:35;;;;;;;3.07;2.80;;;;;;;10.95;82.55;97746.25;5072657;27;103209;-69
2021/12/24 11:46:06;;;;;;;4.00;3.00;;;;;;;10.90;82.50;97740.56;5073509;27;103163;-69
2021/12/24 11:48:35;;;;;;;3.10;2.60;;;;;;;10.82;82.32;97745.69;5053407;27;103518;-69
2021/12/24 11:51:08;;;;;;;3.00;2.00;;;;;;;10.70;83.18;97746.75;5073072;27;103709;-69
2021/12/24 11:53:37;;;;;;;2.00;1.80;;;;;;;11.02;82.87;97750.06;5070183;27;103197;-68
2021/12/24 11:56:07;;;;;;;1.90;1.70;;;;;;;11.35;81.40;97750.63;5075001;27;102734;-69
2021/12/24 11:58:45;;;;;;;2.22;1.83;;;;;;;11.28;81.08;97749.53;5073983;27;103044;-69
2021/12/24 12:01:16;;;;;;;3.17;2.70;;;;;;;11.30;82.08;97740.47;5071504;27;103704;-68
2021/12/24 12:03:46;;;;;;;12.07;11.07;;;;;;;11.13;82.74;97741.16;5049054;27;103176;-69
2021/12/24 12:06:34;;;;;;;2.87;2.27;;;;;;;11.28;83.70;97734.50;5070165;27;103030;-68
2021/12/24 12:09:06;;;;;;;26.92;24.83;;;;;;;10.97;84.67;97728.47;5054650;27;102664;-68
2021/12/24 12:11:36;;;;;;;93.50;86.40;;;;;;;11.16;84.21;97719.72;5068476;27;103330;-68
2021/12/24 12:14:07;;;;;;;41.23;37.77;;;;;;;11.12;84.63;97713.03;5071381;27;103126;-69
2021/12/24 12:16:50;;;;;;;22.98;20.85;;;;;;;11.42;82.94;97710.28;5073535;27;102928;-69
2021/12/24 12:19:24;;;;;;;80.65;62.33;;;;;;;11.19;83.68;97708.88;5069968;27;102977;-68
2021/12/24 12:22:17;;;;;;;9.32;7.65;;;;;;;11.32;83.45;97706.78;5054743;27;104142;-69
2021/12/24 12:27:34;;;;;;;1.60;1.50;;;;;;;11.24;83.02;97711.09;5071983;27;102614;-69
2021/12/24 12:30:35;;;;;;;2.10;1.90;;;;;;;11.28;82.57;97696.66;5054033;27;105145;-69
2021/12/24 12:33:09;;;;;;;2.53;2.33;;;;;;;11.12;82.57;97697.19;5069572;27;103283;-69
2021/12/24 12:35:43;;;;;;;3.30;2.60;;;;;;;11.12;83.12;97691.06;5072749;27;103188;-69
2021/12/24 12:38:30;;;;;;;2.55;2.25;;;;;;;11.23;82.88;97691.75;5069353;27;102706;-69
2021/12/24 12:41:21;;;;;;;2.10;1.70;;;;;;;11.01;82.79;97689.38;5071015;27;104109;-69
2021/12/24 12:43:50;;;;;;;2.45;1.90;;;;;;;11.01;83.20;97684.09;5072627;27;103251;-69
2021/12/24 12:46:27;;;;;;;2.03;1.50;;;;;;;11.04;82.52;97679.38;5070052;27;103309;-69
2021/12/24 12:48:56;;;;;;;1.90;1.30;;;;;;;11.23;82.01;97677.72;5070300;27;102636;-69
2021/12/24 12:51:51;;;;;;;1.58;1.48;;;;;;;11.03;82.80;97675.06;5068841;27;103952;-69
2021/12/24 12:54:36;;;;;;;1.50;1.20;;;;;;;11.10;82.53;97682.44;5071383;27;103254;-69
2021/12/24 12:57:20;;;;;;;1.35;1.25;;;;;;;11.14;82.34;97681.19;5055393;27;104071;-69
2021/12/24 13:00:24;;;;;;;1.35;1.25;;;;;;;11.49;81.16;97679.66;5073608;27;102801;-69
2021/12/24 13:03:09;;;;;;;1.50;1.25;;;;;;;11.30;81.34;97684.13;5057574;27;103651;-69
2021/12/24 13:05:58;;;;;;;2.10;1.90;;;;;;;11.17;81.26;97673.81;5075342;27;103287;-69
2021/12/24 13:08:28;;;;;;;1.80;1.70;;;;;;;11.28;81.35;97670.22;5055399;27;104144;-69
2021/12/24 13:10:58;;;;;;;1.50;1.40;;;;;;;11.29;81.20;97661.28;5061282;27;102701;-69
2021/12/24 13:13:27;;;;;;;2.30;2.10;;;;;;;11.22;81.46;97670.75;5074192;27;103778;-69
2021/12/24 13:15:56;;;;;;;2.85;2.65;;;;;;;11.27;81.15;97657.94;5073510;27;103395;-69
2021/12/24 13:18:30;;;;;;;4.70;4.40;;;;;;;11.19;81.31;97665.75;5075207;27;103183;-69
2021/12/24 13:23:47;;;;;;;9.70;9.00;;;;;;;10.92;82.65;97669.91;5075084;27;103805;-70